Time;durP1;ratioP1;P1;durP2;ratioP2;P2;SDS_P1;SDS_P2;PMS_P1;PMS_P2;Temp;Humidity;BMP_temperature;BMP_pressure;BME280_temperature;BME280_humidity;BME280_pressure;Samples;Min_cycle;Max_cycle;Signal;HPM_P1;HPM_P2
2021/07/13 00:02:20;;;;;;;10.32;9.33;;;;;;;17.43;87.82;99404.67;1742673;80;21562;-67
2021/07/13 00:04:47;;;;;;;11.83;10.18;;;;;;;17.39;87.93;99401.91;1753492;81;21511;-67
2021/07/13 00:07:14;;;;;;;16.73;10.48;;;;;;;17.39;88.15;99404.55;1766626;79;20976;-67
2021/07/13 00:09:41;;;;;;;15.23;10.35;;;;;;;17.39;88.13;99408.50;1773758;79;20989;-67
2021/07/13 00:16:49;;;;;;;11.40;9.85;;;;;;;17.35;88.20;99417.64;1770497;79;20932;-67
2021/07/13 00:19:16;;;;;;;14.38;10.53;;;;;;;17.31;88.32;99405.63;1773204;79;21105;-67
2021/07/13 00:21:43;;;;;;;13.05;10.23;;;;;;;17.30;88.37;99401.33;1779214;79;20927;-67
2021/07/13 00:24:11;;;;;;;14.78;10.28;;;;;;;17.30;88.46;99403.97;1772262;79;24339;-67
2021/07/13 00:26:38;;;;;;;18.35;10.72;;;;;;;17.31;88.47;99395.95;1779040;79;20920;-67
2021/07/13 00:29:08;;;;;;;12.25;10.03;;;;;;;17.36;88.64;99407.43;1776832;79;21020;-67
2021/07/13 00:31:35;;;;;;;10.23;8.98;;;;;;;17.36;88.47;99420.63;1768373;79;21532;-66
2021/07/13 00:34:02;;;;;;;11.18;8.55;;;;;;;17.31;88.37;99434.66;1773330;79;24831;-66
2021/07/13 00:36:28;;;;;;;11.95;9.20;;;;;;;17.26;88.39;99434.22;1781784;79;20908;-67
2021/07/13 00:38:55;;;;;;;13.32;9.68;;;;;;;17.22;88.60;99430.95;1771362;79;20952;-67
2021/07/13 00:41:22;;;;;;;9.70;8.68;;;;;;;17.21;88.65;99431.45;1775832;79;21504;-67
2021/07/13 00:43:49;;;;;;;11.55;8.80;;;;;;;17.23;88.67;99432.17;1774466;79;21093;-66
2021/07/13 00:46:16;;;;;;;12.63;7.60;;;;;;;17.25;88.69;99427.23;1750902;79;21092;-67
2021/07/13 00:48:43;;;;;;;7.40;6.67;;;;;;;17.26;88.73;99430.26;1773272;79;21025;-66
2021/07/13 00:51:11;;;;;;;8.80;7.33;;;;;;;17.27;88.74;99439.84;1766842;79;20930;-67
2021/07/13 00:53:42;;;;;;;11.70;8.85;;;;;;;17.27;88.74;99438.52;1753705;80;20978;-67
2021/07/13 00:56:10;;;;;;;12.70;8.88;;;;;;;17.25;88.72;99451.82;1777455;79;21076;-67
2021/07/13 00:58:37;;;;;;;11.75;8.78;;;;;;;17.20;88.73;99452.20;1772997;79;22287;-67
2021/07/13 01:01:08;;;;;;;10.35;8.13;;;;;;;17.16;88.79;99447.28;1758416;80;20899;-67
2021/07/13 01:03:36;;;;;;;9.40;8.08;;;;;;;17.13;88.86;99453.63;1783160;79;21565;-67
2021/07/13 01:06:04;;;;;;;10.38;8.33;;;;;;;17.08;88.92;99455.78;1761412;80;20914;-67
2021/07/13 01:08:45;;;;;;;10.32;9.33;;;;;;;17.06;88.98;99463.00;1766308;80;21087;-67
2021/07/13 01:11:51;;;;;;;9.48;8.55;;;;;;;17.04;89.08;99451.73;1769312;80;20942;-67
2021/07/13 01:14:35;;;;;;;10.78;9.68;;;;;;;17.05;89.07;99450.75;1768179;79;20940;-67
2021/07/13 01:17:09;;;;;;;11.00;8.80;;;;;;;17.03;89.11;99446.56;1751525;80;21469;-66
2021/07/13 01:19:57;;;;;;;9.63;8.70;;;;;;;17.02;89.15;99443.09;1773030;79;20995;-66
2021/07/13 01:22:29;;;;;;;11.10;9.80;;;;;;;16.98;89.14;99449.58;1756416;80;21059;-66
2021/07/13 01:25:28;;;;;;;12.47;8.90;;;;;;;16.93;89.18;99457.00;1761679;80;21564;-66
2021/07/13 01:28:09;;;;;;;11.68;9.13;;;;;;;16.90;89.15;99452.80;1765117;80;20998;-66
2021/07/13 01:30:41;;;;;;;11.40;9.95;;;;;;;16.86;89.15;99440.83;1764057;80;21041;-66
2021/07/13 01:33:23;;;;;;;11.05;9.95;;;;;;;16.84;89.32;99449.81;1761105;80;21066;-65
2021/07/13 01:36:10;;;;;;;10.72;9.68;;;;;;;16.84;89.23;99452.45;1752292;80;23222;-65
2021/07/13 01:38:42;;;;;;;11.00;9.83;;;;;;;16.83;89.30;99458.66;1762943;80;21054;-65
2021/07/13 01:41:14;;;;;;;12.53;11.25;;;;;;;16.85;89.47;99462.03;1762223;80;20960;-65
2021/07/13 01:43:43;;;;;;;11.45;10.43;;;;;;;16.86;89.49;99465.02;1767339;80;21054;-65
2021/07/13 01:46:13;;;;;;;12.50;11.20;;;;;;;16.88;89.65;99467.06;1758989;80;21029;-65
2021/07/13 01:48:42;;;;;;;12.73;10.88;;;;;;;16.89;89.51;99463.48;1771118;80;21695;-65
2021/07/13 01:51:09;;;;;;;12.80;10.40;;;;;;;16.89;89.58;99466.13;1763296;80;20970;-65
2021/07/13 01:53:36;;;;;;;;;;;;;;;16.87;89.54;99464.91;1764561;80;21524;-65
2021/07/13 01:56:05;;;;;;;11.35;10.23;;;;;;;16.82;89.63;99461.78;1743284;80;20119;-65
2021/07/13 01:58:32;;;;;;;13.83;11.18;;;;;;;16.81;89.70;99460.60;1752996;80;21208;-66
2021/07/13 02:01:05;;;;;;;13.08;10.55;;;;;;;16.76;89.55;99459.14;1765687;80;21104;-65
2021/07/13 02:03:33;;;;;;;11.60;10.38;;;;;;;16.74;89.50;99471.56;1766655;80;21035;-66
2021/07/13 02:06:01;;;;;;;10.58;9.43;;;;;;;16.71;89.43;99474.44;1762424;80;21533;-65
2021/07/13 02:08:29;;;;;;;10.72;9.65;;;;;;;16.66;89.48;99486.29;1758729;80;21098;-66
2021/07/13 02:10:57;;;;;;;11.40;9.93;;;;;;;16.65;89.61;99476.72;1751463;80;21528;-65
2021/07/13 02:13:24;;;;;;;11.10;9.98;;;;;;;16.64;89.63;99469.29;1774070;80;21070;-66
2021/07/13 02:15:51;;;;;;;11.35;10.25;;;;;;;16.61;89.55;99457.66;1747126;81;21011;-66
2021/07/13 02:18:18;;;;;;;11.10;9.93;;;;;;;16.55;89.65;99462.92;1763347;80;21027;-66
2021/07/13 02:20:45;;;;;;;13.45;10.10;;;;;;;16.55;89.83;99458.97;1761346;80;20951;-66
2021/07/13 02:23:12;;;;;;;11.60;10.45;;;;;;;16.56;89.75;99457.17;1789894;79;20993;-66
2021/07/13 02:25:41;;;;;;;15.40;11.40;;;;;;;16.54;89.73;99459.08;1794793;79;21063;-66
2021/07/13 02:28:35;;;;;;;11.15;9.63;;;;;;;16.53;89.83;99454.77;1789813;79;21287;-66
2021/07/13 02:31:07;;;;;;;29.85;8.48;;;;;;;16.52;89.82;99468.89;1752642;81;20950;-66
2021/07/13 02:34:10;;;;;;;11.33;10.20;;;;;;;16.40;89.73;99465.88;1786987;79;21157;-66
2021/07/13 02:36:45;;;;;;;10.98;9.93;;;;;;;16.40;89.80;99465.39;1736695;80;21021;-66
2021/07/13 02:39:14;;;;;;;12.70;10.03;;;;;;;16.36;89.78;99468.39;1769216;80;21171;-67
2021/07/13 02:41:45;;;;;;;11.70;10.48;;;;;;;16.36;89.85;99465.76;1793045;79;21137;-66
2021/07/13 02:44:13;;;;;;;10.72;9.73;;;;;;;16.41;90.11;99467.54;1760232;81;21486;-66
2021/07/13 02:46:43;;;;;;;11.55;9.28;;;;;;;16.46;90.19;99470.67;1768644;80;20970;-67
2021/07/13 02:49:13;;;;;;;10.98;9.90;;;;;;;16.54;90.22;99469.62;1763686;80;21025;-67
2021/07/13 02:51:41;;;;;;;10.63;9.63;;;;;;;16.57;90.15;99477.28;1784308;80;22088;-67
2021/07/13 02:54:10;;;;;;;12.33;7.42;;;;;;;16.52;89.88;99465.80;1766268;80;21045;-67
2021/07/13 02:56:40;;;;;;;16.62;8.68;;;;;;;16.49;89.75;99471.75;1723389;81;20986;-67
2021/07/13 02:59:09;;;;;;;14.40;10.03;;;;;;;16.48;89.83;99470.09;1791520;79;20900;-67
2021/07/13 03:01:37;;;;;;;11.80;10.70;;;;;;;16.64;90.22;99467.97;1748941;81;20994;-67
2021/07/13 03:04:05;;;;;;;11.93;10.72;;;;;;;16.89;90.37;99457.73;1768839;80;21120;-67
2021/07/13 03:06:34;;;;;;;12.78;11.53;;;;;;;17.21;90.35;99456.51;1775529;80;22165;-67
2021/07/13 03:09:01;;;;;;;14.28;11.68;;;;;;;17.56;90.47;99463.89;1762467;79;20949;-67
2021/07/13 03:11:31;;;;;;;12.15;10.93;;;;;;;17.94;90.24;99464.78;1749734;81;21081;-67
2021/07/13 03:14:03;;;;;;;12.33;10.63;;;;;;;18.31;89.89;99469.66;1732604;80;21001;-67
2021/07/13 03:16:33;;;;;;;12.13;10.93;;;;;;;18.64;89.57;99473.09;1790700;79;21223;-67
2021/07/13 03:19:00;;;;;;;12.00;8.83;;;;;;;19.04;89.52;99456.48;1758535;80;20998;-67
2021/07/13 03:21:31;;;;;;;9.58;7.85;;;;;;;19.46;89.17;99447.91;1757889;81;20940;-67
2021/07/13 03:24:02;;;;;;;7.55;6.85;;;;;;;19.81;88.66;99446.12;1778063;80;20903;-67
2021/07/13 03:26:38;;;;;;;9.08;7.65;;;;;;;20.13;88.28;99439.70;1769477;80;21026;-67
2021/07/13 03:29:06;;;;;;;;;;;;;;;20.51;88.20;99444.61;1780729;80;21253;-67
2021/07/13 03:31:35;;;;;;;9.08;8.18;;;;;;;20.99;87.87;99442.33;1761762;79;20244;-68
2021/07/13 03:34:04;;;;;;;8.55;7.65;;;;;;;21.44;87.71;99442.41;1764304;80;21630;-67
2021/07/13 03:36:32;;;;;;;8.48;7.33;;;;;;;21.80;87.22;99444.28;1768769;79;21536;-68
2021/07/13 03:39:00;;;;;;;7.92;7.20;;;;;;;21.97;86.58;99435.47;1775124;80;21048;-68
2021/07/13 03:41:29;;;;;;;8.10;6.75;;;;;;;22.47;87.80;99429.59;1738769;80;21797;-68
2021/07/13 03:44:03;;;;;;;10.72;6.45;;;;;;;23.09;87.28;99426.80;1771637;80;21504;-68
2021/07/13 03:46:36;;;;;;;6.70;6.00;;;;;;;23.81;87.34;99425.86;1746881;80;21583;-68
2021/07/13 03:49:08;;;;;;;7.65;5.80;;;;;;;24.64;87.70;99426.17;1744748;80;22133;-67
2021/07/13 03:51:43;;;;;;;8.98;5.70;;;;;;;25.49;86.92;99424.22;1797707;79;20990;-67
2021/07/13 03:54:14;;;;;;;6.08;5.47;;;;;;;26.10;85.86;99417.14;1760174;80;21535;-68
2021/07/13 03:56:42;;;;;;;7.35;5.58;;;;;;;26.46;84.69;99420.47;1760207;80;21473;-68
2021/07/13 03:59:09;;;;;;;7.15;4.85;;;;;;;26.72;84.78;99408.52;1765744;80;21007;-68
2021/07/13 04:01:37;;;;;;;5.53;4.97;;;;;;;27.25;85.64;99411.92;1752973;80;21038;-68
2021/07/13 04:04:05;;;;;;;6.35;4.90;;;;;;;27.93;85.29;99406.30;1720948;80;21053;-67
2021/07/13 04:06:33;;;;;;;6.62;4.60;;;;;;;28.27;84.22;99406.37;1780021;78;21390;-67
2021/07/13 04:09:04;;;;;;;7.55;5.45;;;;;;;28.53;84.09;99402.24;1779542;78;21065;-67
2021/07/13 04:11:31;;;;;;;5.12;4.17;;;;;;;28.69;84.03;99401.11;1776749;78;20954;-67
2021/07/13 04:13:58;;;;;;;7.00;4.35;;;;;;;28.65;82.23;99407.89;1778789;78;21034;-68
2021/07/13 04:16:25;;;;;;;5.60;4.72;;;;;;;28.55;81.70;99409.60;1761238;78;21006;-68
2021/07/13 04:18:51;;;;;;;7.87;4.33;;;;;;;28.68;81.27;99408.35;1764993;78;21290;-67
2021/07/13 04:21:18;;;;;;;8.68;4.55;;;;;;;28.80;81.26;99406.45;1750573;79;20983;-67
2021/07/13 04:23:45;;;;;;;6.72;4.67;;;;;;;28.91;81.56;99408.58;1790072;79;22118;-65
2021/07/13 04:26:12;;;;;;;7.35;4.47;;;;;;;29.15;82.01;99406.73;1764036;80;20971;-66
2021/07/13 04:28:42;;;;;;;8.25;4.33;;;;;;;29.50;81.73;99403.97;1746008;79;21014;-65
2021/07/13 04:31:09;;;;;;;6.22;3.85;;;;;;;30.15;82.72;99408.84;1755719;80;21089;-67
2021/07/13 04:33:35;;;;;;;6.78;3.42;;;;;;;30.98;83.33;99395.19;1763114;80;21010;-67
2021/07/13 04:36:03;;;;;;;3.85;3.50;;;;;;;31.78;82.62;99400.17;1754597;80;20976;-68
2021/07/13 04:38:30;;;;;;;7.05;3.42;;;;;;;31.97;80.70;99405.16;1752218;81;20943;-67
2021/07/13 04:40:56;;;;;;;5.45;2.98;;;;;;;31.59;79.33;99398.43;1761237;80;21581;-67
2021/07/13 04:43:23;;;;;;;4.50;3.20;;;;;;;31.32;79.23;99405.30;1768486;80;21072;-67
2021/07/13 04:45:50;;;;;;;5.03;3.40;;;;;;;30.93;78.69;99407.13;1766049;80;20970;-68
2021/07/13 04:48:16;;;;;;;6.87;3.75;;;;;;;30.57;77.86;99404.90;1756746;80;20989;-68
2021/07/13 04:50:43;;;;;;;8.33;3.83;;;;;;;30.33;77.92;99409.06;1761779;80;21007;-67
2021/07/13 04:53:10;;;;;;;7.97;3.62;;;;;;;30.06;77.71;99417.13;1763877;80;20943;-68
2021/07/13 04:55:37;;;;;;;5.70;3.55;;;;;;;29.85;77.28;99406.54;1767781;80;21102;-68
2021/07/13 04:58:03;;;;;;;5.50;3.67;;;;;;;29.82;77.38;99412.34;1787882;79;21768;-68
2021/07/13 05:00:30;;;;;;;6.05;3.00;;;;;;;29.81;77.47;99420.11;1789629;79;20978;-68
2021/07/13 05:02:57;;;;;;;8.78;3.60;;;;;;;29.94;77.27;99421.97;1772922;80;22118;-68
2021/07/13 05:05:23;;;;;;;5.25;3.17;;;;;;;30.30;78.21;99417.56;1759456;80;21115;-68
2021/07/13 05:07:50;;;;;;;4.70;2.98;;;;;;;30.72;77.70;99416.78;1738249;81;20967;-68
2021/07/13 05:10:18;;;;;;;5.15;3.30;;;;;;;31.05;77.69;99409.98;1748903;81;20936;-68
2021/07/13 05:12:45;;;;;;;11.50;3.27;;;;;;;31.44;77.22;99414.39;1764607;80;20919;-68
2021/07/13 05:15:16;;;;;;;7.80;3.50;;;;;;;31.38;75.81;99415.27;1774734;79;20949;-67
2021/07/13 05:17:43;;;;;;;10.40;3.20;;;;;;;31.23;76.00;99414.69;1777942;79;21011;-68
2021/07/13 05:20:14;;;;;;;9.55;3.33;;;;;;;31.46;75.43;99410.67;1766088;79;21157;-67
2021/07/13 05:22:44;;;;;;;8.18;3.35;;;;;;;31.40;75.15;99414.53;1769057;79;21018;-67
2021/07/13 05:25:14;;;;;;;16.07;3.83;;;;;;;31.38;74.93;99423.35;1762903;79;20991;-67
2021/07/13 05:27:45;;;;;;;19.48;4.22;;;;;;;31.60;75.00;99421.69;1773203;79;20971;-68
2021/07/13 05:30:13;;;;;;;17.85;3.47;;;;;;;31.67;74.19;99417.06;1768639;79;21557;-68
2021/07/13 05:32:40;;;;;;;4.45;2.62;;;;;;;31.74;73.77;99424.61;1772694;79;21053;-68
2021/07/13 05:35:08;;;;;;;6.97;2.77;;;;;;;31.57;72.14;99422.95;1766992;79;20887;-68
2021/07/13 05:37:36;;;;;;;5.47;2.70;;;;;;;30.59;71.50;99426.26;1762962;80;20946;-68
2021/07/13 05:40:06;;;;;;;6.50;2.85;;;;;;;30.38;73.49;99419.22;1768260;79;21568;-68
2021/07/13 05:42:33;;;;;;;8.35;3.27;;;;;;;30.06;72.89;99422.52;1769047;80;21474;-68
2021/07/13 05:45:02;;;;;;;6.28;3.25;;;;;;;29.43;73.02;99405.80;1760753;79;21258;-68
2021/07/13 05:47:29;;;;;;;9.00;2.95;;;;;;;29.63;74.39;99406.73;1800085;79;20927;-68
2021/07/13 05:50:10;;;;;;;7.28;3.55;;;;;;;30.30;74.33;99404.09;1743215;81;21011;-68
2021/07/13 05:52:37;;;;;;;6.90;3.47;;;;;;;30.63;73.51;99404.05;1743719;80;20993;-67
2021/07/13 05:55:06;;;;;;;6.78;3.30;;;;;;;30.68;72.48;99411.52;1791904;79;20932;-67
2021/07/13 05:57:34;;;;;;;7.10;3.85;;;;;;;30.76;72.86;99413.98;1789800;78;21474;-67
2021/07/13 06:00:04;;;;;;;5.03;3.30;;;;;;;31.10;72.41;99405.30;1775239;80;20951;-68
2021/07/13 06:02:31;;;;;;;8.30;3.30;;;;;;;31.25;71.50;99405.84;1733923;81;20916;-67
2021/07/13 06:04:58;;;;;;;11.57;4.00;;;;;;;31.08;71.13;99401.98;1782311;78;20993;-68
2021/07/13 06:07:25;;;;;;;9.33;3.70;;;;;;;30.94;71.04;99400.68;1764115;80;21489;-68
2021/07/13 06:09:52;;;;;;;8.73;3.87;;;;;;;31.04;71.30;99398.08;1730229;79;21132;-67
2021/07/13 06:12:20;;;;;;;9.63;3.70;;;;;;;30.88;70.27;99396.14;1758524;80;20875;-67
2021/07/13 06:14:47;;;;;;;11.22;3.02;;;;;;;31.09;70.41;99399.58;1760100;80;21445;-68
2021/07/13 06:17:13;;;;;;;7.20;3.22;;;;;;;31.06;70.37;99400.02;1713635;82;20982;-69
2021/07/13 06:19:40;;;;;;;7.83;3.65;;;;;;;31.11;69.59;99402.91;1719817;82;21605;-68
2021/07/13 06:22:07;;;;;;;7.37;3.52;;;;;;;30.48;68.78;99411.03;1709716;81;21583;-68
2021/07/13 06:24:34;;;;;;;6.83;3.58;;;;;;;30.03;68.48;99414.85;1728588;80;20956;-68
2021/07/13 06:27:01;;;;;;;5.65;3.40;;;;;;;29.62;68.35;99413.09;1725785;81;22187;-68
2021/07/13 06:29:29;;;;;;;10.38;3.67;;;;;;;29.47;68.93;99411.11;1703978;82;21063;-68
2021/07/13 06:31:56;;;;;;;13.48;3.87;;;;;;;29.82;69.26;99417.72;1726431;81;21027;-69
2021/07/13 06:34:24;;;;;;;4.75;3.55;;;;;;;30.08;68.71;99416.41;1702505;82;21931;-69
2021/07/13 06:36:51;;;;;;;9.48;3.87;;;;;;;30.07;67.88;99417.42;1728535;82;21048;-69
2021/07/13 06:39:18;;;;;;;17.57;5.08;;;;;;;30.08;67.29;99415.06;1727392;81;21015;-70
2021/07/13 06:41:45;;;;;;;8.00;3.92;;;;;;;29.94;66.39;99418.79;1728815;82;20960;-69
2021/07/13 06:44:13;;;;;;;5.78;3.35;;;;;;;29.84;66.23;99421.05;1735411;82;21564;-69
2021/07/13 06:46:40;;;;;;;10.70;3.83;;;;;;;29.82;66.29;99415.85;1730903;82;21996;-67
2021/07/13 06:49:07;;;;;;;6.12;4.12;;;;;;;29.84;65.74;99415.66;1723410;81;20991;-68
2021/07/13 06:51:36;;;;;;;10.78;4.30;;;;;;;29.90;65.49;99425.59;1706260;82;21086;-68
2021/07/13 06:54:03;;;;;;;7.67;4.37;;;;;;;29.84;64.63;99419.70;1684082;82;21054;-66
2021/07/13 06:56:31;;;;;;;7.72;4.20;;;;;;;29.92;64.89;99414.13;1702732;82;21132;-68
2021/07/13 06:58:58;;;;;;;7.47;3.87;;;;;;;30.23;64.87;99411.37;1729232;82;21519;-69
2021/07/13 07:01:26;;;;;;;7.30;4.30;;;;;;;30.38;64.05;99409.27;1730313;82;20985;-67
2021/07/13 07:03:55;;;;;;;7.87;3.83;;;;;;;30.30;63.67;99412.17;1729046;81;22173;-70
2021/07/13 07:06:23;;;;;;;7.05;4.03;;;;;;;30.45;63.89;99410.62;1726154;81;21037;-68
2021/07/13 07:09:42;;;;;;;6.33;4.10;;;;;;;30.90;62.81;99404.03;1837798;76;22823;-68
2021/07/13 07:12:10;;;;;;;5.30;3.42;;;;;;;30.97;63.29;99397.55;1775710;79;20933;-68
2021/07/13 07:15:30;;;;;;;8.23;3.77;;;;;;;31.34;61.52;99384.34;1835242;75;22720;-68
2021/07/13 07:17:57;;;;;;;8.70;3.72;;;;;;;31.33;62.26;99393.46;1802088;78;21044;-68
2021/07/13 07:20:27;;;;;;;9.08;4.10;;;;;;;31.15;61.37;99396.05;1826144;76;21079;-66
2021/07/13 07:22:57;;;;;;;4.35;3.55;;;;;;;30.98;61.49;99387.62;1826052;77;22267;-67
2021/07/13 07:25:30;;;;;;;7.20;3.83;;;;;;;31.12;61.38;99385.70;1796705;78;21017;-69
2021/07/13 07:28:02;;;;;;;7.42;3.87;;;;;;;31.17;61.29;99389.91;1807695;77;21059;-68
2021/07/13 07:30:32;;;;;;;8.73;3.70;;;;;;;31.37;61.07;99387.98;1804926;76;20975;-67
2021/07/13 07:33:00;;;;;;;5.80;3.85;;;;;;;31.46;60.43;99379.12;1736574;80;21364;-69
2021/07/13 07:35:28;;;;;;;7.90;3.92;;;;;;;31.35;60.34;99386.52;1791890;79;21338;-70
2021/07/13 07:37:57;;;;;;;8.98;4.03;;;;;;;31.16;60.30;99376.13;1788766;79;21021;-69
2021/07/13 07:40:27;;;;;;;9.03;3.90;;;;;;;31.02;60.18;99379.41;1786639;78;20983;-68
2021/07/13 07:42:57;;;;;;;12.05;4.40;;;;;;;30.84;59.85;99377.41;1758694;79;21270;-68
2021/07/13 07:45:31;;;;;;;10.65;4.25;;;;;;;30.62;59.69;99374.12;1787194;79;21114;-69
2021/07/13 07:47:55;;;;;;;7.17;4.00;;;;;;;30.33;59.61;99374.05;1788503;79;21691;-68
2021/07/13 07:50:24;;;;;;;14.03;4.95;;;;;;;30.24;59.77;99383.39;1786491;79;21669;-69
2021/07/13 07:52:52;;;;;;;7.72;4.37;;;;;;;30.15;59.64;99387.31;1737832;80;20942;-69
2021/07/13 07:55:23;;;;;;;7.83;3.75;;;;;;;29.94;59.00;99387.84;1789707;79;21539;-70
2021/07/13 07:57:51;;;;;;;7.70;4.47;;;;;;;29.68;58.88;99389.14;1766022;80;21039;-70
2021/07/13 08:00:20;;;;;;;7.28;4.25;;;;;;;29.33;58.68;99386.55;1792185;79;20955;-70
2021/07/13 08:02:48;;;;;;;10.72;5.17;;;;;;;29.27;58.41;99385.99;1791396;79;20978;-69
2021/07/13 08:05:15;;;;;;;8.85;4.67;;;;;;;29.28;58.62;99391.70;1766624;79;21013;-69
2021/07/13 08:07:48;;;;;;;9.33;5.03;;;;;;;29.18;58.28;99387.55;1784283;78;21023;-69
2021/07/13 08:10:16;;;;;;;11.95;5.72;;;;;;;28.99;58.32;99382.88;1782062;78;21268;-68
2021/07/13 08:12:45;;;;;;;5.60;5.10;;;;;;;28.94;58.10;99388.02;1793370;78;20981;-69
2021/07/13 08:15:16;;;;;;;8.95;5.72;;;;;;;28.85;57.70;99391.88;1787161;78;20995;-69
2021/07/13 08:17:46;;;;;;;8.18;5.83;;;;;;;28.60;57.63;99394.25;1788021;79;20934;-70
2021/07/13 08:20:15;;;;;;;8.28;5.55;;;;;;;28.49;57.77;99392.94;1778609;80;21005;-70
2021/07/13 08:22:45;;;;;;;10.88;5.92;;;;;;;28.49;57.68;99387.56;1760497;79;21155;-70
2021/07/13 08:25:12;;;;;;;9.05;5.90;;;;;;;28.45;57.53;99387.62;1766682;80;20983;-70
2021/07/13 08:27:40;;;;;;;8.13;6.22;;;;;;;28.42;57.66;99386.64;1778442;79;21029;-70
2021/07/13 08:30:08;;;;;;;14.10;5.97;;;;;;;28.45;57.96;99391.66;1817658;77;20939;-70
2021/07/13 08:32:36;;;;;;;8.15;6.10;;;;;;;28.46;57.95;99396.02;1805233;78;21041;-70
2021/07/13 08:35:04;;;;;;;13.03;6.50;;;;;;;28.47;57.70;99390.95;1801460;78;21121;-70
2021/07/13 08:37:33;;;;;;;6.72;6.12;;;;;;;28.34;57.68;99399.21;1828157;77;23304;-71
2021/07/13 08:40:09;;;;;;;9.15;6.30;;;;;;;28.39;57.50;99401.81;1807195;78;21011;-70
2021/07/13 08:42:42;;;;;;;10.70;6.22;;;;;;;28.42;58.00;99400.07;1805869;78;21332;-71
2021/07/13 08:45:12;;;;;;;16.32;7.53;;;;;;;28.68;58.08;99397.61;1824556;77;20942;-71
2021/07/13 08:47:41;;;;;;;8.90;6.50;;;;;;;28.81;58.06;99394.66;1757503;80;21870;-70
2021/07/13 08:50:10;;;;;;;6.25;5.65;;;;;;;28.91;58.21;99396.48;1758739;80;21563;-71
2021/07/13 08:52:37;;;;;;;11.22;6.03;;;;;;;28.89;57.34;99395.84;1791061;79;21000;-69
2021/07/13 08:55:08;;;;;;;7.60;6.47;;;;;;;28.67;57.44;99402.64;1788942;79;21111;-70
2021/07/13 08:57:38;;;;;;;7.25;5.95;;;;;;;28.55;57.49;99394.83;1770407;79;21041;-70
2021/07/13 09:00:10;;;;;;;9.50;6.50;;;;;;;28.46;57.42;99396.02;1788145;79;22055;-71
2021/07/13 09:02:38;;;;;;;9.13;6.53;;;;;;;28.10;57.05;99402.31;1780856;79;21695;-70
2021/07/13 09:05:15;;;;;;;8.38;6.33;;;;;;;27.88;57.46;99395.62;1770307;79;21088;-71
2021/07/13 09:07:41;;;;;;;6.73;6.13;;;;;;;28.05;58.18;99399.37;1770579;80;20985;-70
2021/07/13 09:10:10;;;;;;;10.00;6.33;;;;;;;28.44;57.95;99398.06;1744836;80;21086;-70
2021/07/13 09:12:52;;;;;;;11.05;6.33;;;;;;;28.46;57.70;99395.50;1756843;81;21740;-71
2021/07/13 09:15:20;;;;;;;6.65;5.33;;;;;;;28.42;57.51;99392.02;1754769;79;21106;-70
2021/07/13 09:17:50;;;;;;;8.80;5.53;;;;;;;28.49;57.36;99390.25;1745907;80;21022;-71
2021/07/13 09:20:25;;;;;;;11.80;5.92;;;;;;;28.40;57.25;99388.69;1785811;79;21592;-70
2021/07/13 09:23:04;;;;;;;8.93;5.70;;;;;;;28.20;56.83;99381.31;1792753;79;20977;-70
2021/07/13 09:25:50;;;;;;;6.53;5.00;;;;;;;28.13;57.22;99380.45;1766544;79;21091;-71
2021/07/13 09:28:24;;;;;;;8.70;4.45;;;;;;;28.21;56.21;99372.27;1794192;79;21589;-71
2021/07/13 09:30:55;;;;;;;;;;;;;;;28.00;55.87;99370.42;1756196;80;21535;-71
2021/07/13 09:33:28;;;;;;;7.78;5.15;;;;;;;27.86;55.79;99377.53;1794394;78;20928;-70
2021/07/13 09:36:11;;;;;;;6.37;5.33;;;;;;;27.95;56.23;99374.72;1787954;78;21488;-69
2021/07/13 09:38:56;;;;;;;20.80;5.00;;;;;;;28.24;56.50;99374.55;1762418;80;21040;-69
2021/07/13 09:41:32;;;;;;;11.43;5.72;;;;;;;28.59;56.55;99372.42;1784357;79;21026;-68
2021/07/13 09:44:10;;;;;;;9.33;5.30;;;;;;;28.81;56.47;99371.83;1789203;79;21074;-68
2021/07/13 09:46:44;;;;;;;7.40;5.25;;;;;;;29.00;56.50;99373.78;1783764;79;20967;-68
2021/07/13 09:49:25;;;;;;;7.15;5.62;;;;;;;29.01;55.75;99368.70;1785944;79;20953;-67
2021/07/13 09:51:59;;;;;;;8.43;6.62;;;;;;;28.87;55.73;99361.63;1777391;79;21289;-68
2021/07/13 09:54:46;;;;;;;16.65;6.95;;;;;;;28.78;55.57;99364.47;1782712;79;21024;-69
2021/07/13 09:57:27;;;;;;;8.73;6.28;;;;;;;28.70;55.63;99369.19;1788830;79;20949;-68
2021/07/13 09:59:58;;;;;;;12.53;6.25;;;;;;;28.73;55.89;99372.30;1767043;79;20982;-69
2021/07/13 10:02:26;;;;;;;11.45;6.97;;;;;;;28.86;55.85;99377.44;1786652;79;20902;-69
2021/07/13 10:04:56;;;;;;;9.18;5.40;;;;;;;28.81;55.33;99369.97;1782943;78;21213;-71
2021/07/13 10:07:22;;;;;;;8.85;6.30;;;;;;;28.68;55.06;99372.09;1794050;79;20948;-72
2021/07/13 10:09:54;;;;;;;;;;;;;;;28.56;55.08;99366.94;1760245;79;21046;-72
2021/07/13 10:12:26;;;;;;;12.00;6.08;;;;;;;28.43;54.69;99369.05;1741424;79;20254;-71
2021/07/13 10:14:57;;;;;;;11.78;6.30;;;;;;;28.31;54.56;99378.09;1758617;79;21009;-71
2021/07/13 10:17:27;;;;;;;6.35;5.55;;;;;;;28.32;54.89;99377.09;1723941;81;22062;-71
2021/07/13 10:20:06;;;;;;;8.13;6.10;;;;;;;28.28;54.83;99381.17;1722667;81;21009;-70
2021/07/13 10:22:36;;;;;;;7.42;6.08;;;;;;;28.34;55.23;99384.45;1705920;81;21081;-69
2021/07/13 10:25:05;;;;;;;6.92;6.03;;;;;;;28.52;54.90;99385.83;1704676;82;21005;-68
2021/07/13 10:27:51;;;;;;;6.17;5.53;;;;;;;28.54;54.66;99379.75;1735902;81;20982;-70
2021/07/13 10:30:24;;;;;;;8.25;5.78;;;;;;;28.55;54.68;99376.03;1759316;81;21909;-69
2021/07/13 10:32:51;;;;;;;8.73;6.17;;;;;;;28.65;54.76;99368.45;1730320;81;20996;-69
2021/07/13 10:35:26;;;;;;;8.98;6.70;;;;;;;28.73;54.46;99374.98;1730118;81;21081;-71
2021/07/13 10:38:20;;;;;;;11.65;6.60;;;;;;;28.67;54.71;99379.81;1732221;81;21018;-70
2021/07/13 10:40:46;;;;;;;9.98;5.78;;;;;;;28.80;55.04;99381.75;1746373;81;21526;-69
2021/07/13 10:43:21;;;;;;;6.80;5.92;;;;;;;29.00;54.96;99387.22;1728667;81;21149;-69
2021/07/13 10:46:10;;;;;;;6.50;5.83;;;;;;;29.02;54.41;99385.16;1755940;81;21017;-70
2021/07/13 10:48:38;;;;;;;7.25;5.30;;;;;;;28.95;54.19;99384.30;1754834;81;21036;-69
2021/07/13 10:51:07;;;;;;;6.92;5.70;;;;;;;28.70;53.89;99382.09;1749914;81;21019;-69
2021/07/13 10:53:42;;;;;;;7.37;6.00;;;;;;;28.59;53.95;99385.34;1759773;81;20938;-69
2021/07/13 10:56:14;;;;;;;9.50;5.25;;;;;;;28.67;53.84;99385.19;1757953;81;21114;-70
2021/07/13 10:58:54;;;;;;;9.83;4.87;;;;;;;28.60;53.40;99383.50;1750192;81;21033;-71
2021/07/13 11:01:32;;;;;;;6.12;4.80;;;;;;;28.52;53.19;99389.86;1753219;81;20948;-71
2021/07/13 11:04:06;;;;;;;9.05;5.92;;;;;;;28.49;53.23;99387.56;1757678;81;21078;-69
2021/07/13 11:06:46;;;;;;;7.20;4.50;;;;;;;28.50;53.16;99381.16;1752209;81;21015;-72
2021/07/13 11:09:19;;;;;;;11.08;5.55;;;;;;;28.52;52.98;99379.94;1731993;81;21083;-70
2021/07/13 11:11:47;;;;;;;7.03;5.30;;;;;;;28.53;53.33;99374.05;1759116;79;21034;-72
2021/07/13 11:14:15;;;;;;;18.00;5.62;;;;;;;28.75;53.65;99379.66;1760954;81;21015;-71
2021/07/13 11:16:45;;;;;;;6.70;5.50;;;;;;;28.95;53.29;99376.23;1778916;79;20974;-70
2021/07/13 11:19:17;;;;;;;12.63;5.30;;;;;;;29.11;53.53;99386.67;1738256;80;21677;-70
2021/07/13 11:21:51;;;;;;;10.85;5.40;;;;;;;29.24;53.08;99381.88;1734584;80;21218;-70
2021/07/13 11:24:22;;;;;;;13.75;5.65;;;;;;;29.34;53.11;99376.09;1763262;79;20965;-70
2021/07/13 11:26:55;;;;;;;10.35;5.10;;;;;;;29.34;52.52;99373.41;1786545;78;21001;-71
2021/07/13 11:29:26;;;;;;;5.10;4.53;;;;;;;29.27;52.32;99368.52;1756424;80;20938;-71
2021/07/13 11:32:02;;;;;;;9.20;5.37;;;;;;;29.16;51.80;99376.16;1762498;79;20969;-70
2021/07/13 11:34:36;;;;;;;11.70;5.33;;;;;;;29.07;51.84;99380.02;1777134;79;21228;-71
2021/07/13 11:37:06;;;;;;;14.30;5.90;;;;;;;28.97;51.57;99374.19;1776229;79;21052;-71
2021/07/13 11:39:39;;;;;;;5.78;5.00;;;;;;;28.86;51.45;99376.09;1782763;79;21500;-71
2021/07/13 11:42:10;;;;;;;9.00;5.40;;;;;;;28.88;51.85;99370.84;1736871;81;21015;-71
2021/07/13 11:44:41;;;;;;;14.00;5.42;;;;;;;28.96;51.86;99367.13;1776928;79;20959;-72
2021/07/13 11:47:14;;;;;;;8.03;4.75;;;;;;;28.88;51.22;99369.50;1779664;78;21579;-71
2021/07/13 11:49:42;;;;;;;8.15;5.45;;;;;;;28.75;51.00;99373.45;1767520;80;20983;-70
2021/07/13 11:52:14;;;;;;;16.15;5.97;;;;;;;28.61;51.08;99367.17;1787913;79;20951;-71